createdAt,value
2022-10-05T00:00:24.114Z,8.23
2022-10-05T00:04:52.459Z,8.40
2022-10-05T00:07:40.280Z,8.55
2022-10-05T00:14:04.285Z,7.57
2022-10-05T00:17:35.325Z,7.00
2022-10-05T00:39:23.382Z,9.65
2022-10-05T00:42:40.577Z,9.38
2022-10-05T00:46:03.730Z,8.82
2022-10-05T00:52:55.072Z,10.13
2022-10-05T01:04:06.847Z,8.05
2022-10-05T01:11:07.122Z,9.18
2022-10-05T01:14:42.844Z,7.50
2022-10-05T01:18:09.661Z,9.07
2022-10-05T01:21:04.282Z,9.60
2022-10-05T01:24:14.580Z,10.25
2022-10-05T01:27:25.768Z,9.70
2022-10-05T01:30:54.548Z,9.07
2022-10-05T01:34:18.175Z,8.48
2022-10-05T01:41:06.195Z,8.23
2022-10-05T01:44:47.832Z,7.85
2022-10-05T01:48:04.822Z,11.52
2022-10-05T01:50:58.975Z,9.05
2022-10-05T01:54:06.643Z,10.05
2022-10-05T01:56:51.851Z,8.55
2022-10-05T01:59:51.980Z,8.55
2022-10-05T02:02:43.102Z,11.20
2022-10-05T02:05:57.103Z,10.40
2022-10-05T02:09:08.675Z,11.70
2022-10-05T02:15:07.753Z,12.45
2022-10-05T02:21:02.315Z,9.68
2022-10-05T02:24:12.667Z,8.25
2022-10-05T02:27:06.196Z,8.50
2022-10-05T02:29:54.786Z,9.30
2022-10-05T02:32:37.266Z,11.82
2022-10-05T02:35:47.715Z,10.07
2022-10-05T02:38:47.751Z,12.02
2022-10-05T02:41:38.630Z,8.50
2022-10-05T02:44:25.040Z,8.55
2022-10-05T02:47:32.493Z,10.07
2022-10-05T02:51:05.819Z,10.23
2022-10-05T02:54:07.372Z,10.48
2022-10-05T02:57:43.841Z,13.20
2022-10-05T03:04:07.743Z,9.65
2022-10-05T03:06:49.281Z,9.65
2022-10-05T03:09:22.777Z,13.98
2022-10-05T03:12:26.167Z,14.95
2022-10-05T03:21:34.509Z,16.88
2022-10-05T03:25:14.676Z,16.38
2022-10-05T03:28:30.751Z,18.08
2022-10-05T03:31:15.257Z,15.00
2022-10-05T03:34:06.964Z,11.95
2022-10-05T03:37:12.210Z,10.90
2022-10-05T03:40:27.498Z,14.02
2022-10-05T03:47:26.889Z,10.05
2022-10-05T03:50:53.362Z,15.88
2022-10-05T03:54:22.806Z,11.10
2022-10-05T03:57:17.438Z,11.23
2022-10-05T04:00:02.985Z,11.20
2022-10-05T04:02:43.274Z,11.32
2022-10-05T04:05:09.961Z,10.82
2022-10-05T04:07:46.658Z,11.45
2022-10-05T04:10:21.832Z,15.63
2022-10-05T04:12:55.037Z,13.10
2022-10-05T04:15:26.785Z,12.80
2022-10-05T04:18:03.453Z,13.43
2022-10-05T04:20:53.009Z,11.70
2022-10-05T04:23:34.757Z,16.30
2022-10-05T04:26:06.349Z,13.38
2022-10-05T04:28:56.030Z,13.75
2022-10-05T04:31:42.782Z,14.30
2022-10-05T04:34:37.617Z,11.73
2022-10-05T04:37:09.813Z,12.65
2022-10-05T04:39:43.414Z,12.05
2022-10-05T04:42:18.146Z,12.18
2022-10-05T04:45:11.832Z,9.82
2022-10-05T04:47:57.022Z,10.65
2022-10-05T04:50:32.718Z,8.52
2022-10-05T04:53:38.107Z,10.30
2022-10-05T04:56:36.642Z,10.57
2022-10-05T04:59:06.066Z,11.98
2022-10-05T05:02:04.199Z,14.77
2022-10-05T05:04:37.910Z,12.32
2022-10-05T05:07:27.453Z,13.57
2022-10-05T05:10:15.037Z,15.02
2022-10-05T05:13:00.633Z,16.33
2022-10-05T05:15:39.312Z,15.25
2022-10-05T05:18:41.500Z,14.77
2022-10-05T05:21:24.516Z,14.25
2022-10-05T05:24:01.689Z,9.13
2022-10-05T05:26:59.248Z,12.32
2022-10-05T05:29:44.732Z,16.42
2022-10-05T05:32:52.765Z,17.65
2022-10-05T05:35:35.949Z,12.43
2022-10-05T05:38:19.199Z,18.35
2022-10-05T05:41:11.806Z,20.83
2022-10-05T05:44:08.289Z,19.55
2022-10-05T05:47:02.496Z,21.67
2022-10-05T05:49:51.163Z,20.13
2022-10-05T05:52:24.112Z,15.10
2022-10-05T05:54:58.413Z,16.73
2022-10-05T05:57:32.356Z,18.80
2022-10-05T06:00:08.050Z,19.17
2022-10-05T06:02:49.001Z,21.42
2022-10-05T06:05:41.586Z,20.67
2022-10-05T06:08:39.953Z,19.80
2022-10-05T06:11:45.255Z,18.77
2022-10-05T06:14:21.989Z,22.07
2022-10-05T06:16:55.884Z,17.77
2022-10-05T06:19:24.479Z,25.60
2022-10-05T06:21:56.294Z,26.15
2022-10-05T06:24:30.221Z,24.23
2022-10-05T06:27:09.525Z,21.25
2022-10-05T06:30:00.121Z,27.75
2022-10-05T06:32:31.909Z,23.50
2022-10-05T06:35:17.018Z,24.63
2022-10-05T06:38:15.153Z,31.13
2022-10-05T06:41:05.541Z,24.52
2022-10-05T06:44:22.972Z,20.23
2022-10-05T06:47:23.066Z,24.05
2022-10-05T06:50:41.790Z,28.40
2022-10-05T06:53:43.906Z,24.10
2022-10-05T06:56:29.384Z,23.92
2022-10-05T06:59:06.291Z,25.67
2022-10-05T07:01:53.604Z,28.85
2022-10-05T07:04:37.109Z,29.23
2022-10-05T07:07:29.721Z,25.45
2022-10-05T07:10:14.852Z,28.75
2022-10-05T07:12:59.256Z,28.83
2022-10-05T07:15:49.466Z,38.78
2022-10-05T07:18:58.496Z,27.17
2022-10-05T07:21:39.272Z,29.45
2022-10-05T07:24:29.023Z,30.33
2022-10-05T07:27:12.550Z,28.83
2022-10-05T07:30:01.209Z,29.38
2022-10-05T07:32:36.367Z,33.67
2022-10-05T07:35:41.862Z,33.00
2022-10-05T07:38:32.815Z,36.75
2022-10-05T07:41:10.855Z,32.63
2022-10-05T07:44:02.602Z,30.60
2022-10-05T07:46:56.664Z,24.98
2022-10-05T07:49:43.652Z,24.38
2022-10-05T07:52:20.080Z,29.45
2022-10-05T07:54:56.192Z,26.80
2022-10-05T07:57:35.778Z,25.27
2022-10-05T08:00:21.007Z,27.05
2022-10-05T08:02:53.565Z,27.15
2022-10-05T08:05:29.432Z,30.27
2022-10-05T08:08:08.355Z,29.27
2022-10-05T08:11:05.430Z,28.00
2022-10-05T08:13:39.062Z,28.80
2022-10-05T08:16:12.597Z,25.40
2022-10-05T08:18:50.113Z,21.58
2022-10-05T08:21:21.935Z,20.83
2022-10-05T08:23:57.135Z,18.65
2022-10-05T08:26:54.972Z,15.70
2022-10-05T08:29:21.388Z,17.75
2022-10-05T08:31:53.066Z,21.33
2022-10-05T08:34:40.780Z,17.77
2022-10-05T08:37:19.902Z,18.50
2022-10-05T08:40:11.259Z,17.80
2022-10-05T08:42:56.433Z,22.08
2022-10-05T08:45:40.735Z,16.40
2022-10-05T08:48:43.712Z,17.45
2022-10-05T08:51:39.726Z,16.80
2022-10-05T08:54:28.031Z,16.35
2022-10-05T08:57:23.884Z,16.80
2022-10-05T09:00:07.928Z,15.55
2022-10-05T09:02:49.001Z,16.33
2022-10-05T09:05:41.901Z,16.13
2022-10-05T09:08:39.229Z,11.73
2022-10-05T09:11:11.883Z,14.55
2022-10-05T09:14:02.585Z,16.05
2022-10-05T09:16:38.105Z,14.75
2022-10-05T09:19:38.698Z,15.77
2022-10-05T09:22:24.144Z,15.25
2022-10-05T09:25:25.710Z,13.80
2022-10-05T09:28:13.871Z,16.15
2022-10-05T09:31:11.302Z,13.38
2022-10-05T09:33:51.764Z,16.48
2022-10-05T09:36:34.218Z,14.55
2022-10-05T09:39:28.090Z,14.17
2022-10-05T09:42:11.852Z,13.20
2022-10-05T09:45:02.435Z,13.75
2022-10-05T09:48:01.433Z,12.48
2022-10-05T09:50:46.217Z,12.75
2022-10-05T09:53:40.393Z,14.85
2022-10-05T09:56:15.610Z,12.50
2022-10-05T09:59:13.142Z,13.20
2022-10-05T10:02:07.518Z,12.65
2022-10-05T10:05:01.617Z,14.05
2022-10-05T10:07:50.101Z,13.25
2022-10-05T10:10:38.909Z,13.95
2022-10-05T10:13:36.075Z,13.55
2022-10-05T10:16:15.209Z,13.45
2022-10-05T10:19:00.540Z,13.40
2022-10-05T10:21:45.767Z,11.90
2022-10-05T10:24:50.849Z,12.65
2022-10-05T10:27:41.936Z,14.00
2022-10-05T10:30:36.416Z,13.55
2022-10-05T10:33:32.802Z,12.48
2022-10-05T10:36:13.098Z,12.25
2022-10-05T10:38:51.228Z,12.68
2022-10-05T10:41:32.850Z,12.85
2022-10-05T10:44:24.352Z,13.00
2022-10-05T10:47:13.384Z,12.05
2022-10-05T10:50:23.870Z,12.18
2022-10-05T10:53:10.301Z,12.25
2022-10-05T10:56:08.549Z,12.73
2022-10-05T10:59:26.558Z,12.43
2022-10-05T11:02:10.656Z,12.63
2022-10-05T11:05:03.240Z,10.63
2022-10-05T11:07:45.485Z,11.53
2022-10-05T11:10:18.339Z,10.90
2022-10-05T11:13:29.025Z,9.98
2022-10-05T11:16:19.820Z,10.35
2022-10-05T11:19:35.154Z,9.82
2022-10-05T11:22:32.418Z,11.43
2022-10-05T11:25:31.075Z,10.25
2022-10-05T11:28:35.639Z,9.57
2022-10-05T11:31:23.309Z,9.10
2022-10-05T11:34:36.706Z,8.05
2022-10-05T11:37:12.102Z,6.63
2022-10-05T11:39:58.608Z,7.60
2022-10-05T11:43:04.507Z,6.80
2022-10-05T11:45:51.139Z,6.25
2022-10-05T11:48:33.362Z,6.82
2022-10-05T11:51:19.402Z,7.35
2022-10-05T11:54:23.384Z,6.28
2022-10-05T11:57:05.398Z,8.77
2022-10-05T11:59:39.642Z,5.18
2022-10-05T12:02:43.878Z,4.68
2022-10-05T12:05:22.675Z,3.80
2022-10-05T12:07:55.819Z,4.13
2022-10-05T12:10:32.577Z,3.80
2022-10-05T12:13:33.515Z,4.53
2022-10-05T12:16:19.337Z,4.47
2022-10-05T12:18:52.337Z,4.43
2022-10-05T12:21:31.632Z,4.57
2022-10-05T12:24:13.120Z,5.05
2022-10-05T12:27:01.276Z,5.18
2022-10-05T12:29:43.999Z,5.10
2022-10-05T12:32:26.162Z,4.30
2022-10-05T12:35:04.429Z,6.28
2022-10-05T12:37:42.872Z,6.78
2022-10-05T12:40:34.033Z,3.97
2022-10-05T12:43:23.509Z,4.20
2022-10-05T12:46:08.888Z,4.15
2022-10-05T12:49:17.522Z,4.07
2022-10-05T12:51:59.594Z,4.07
2022-10-05T12:54:53.576Z,5.43
2022-10-05T12:57:24.610Z,4.78
2022-10-05T13:00:00.024Z,4.30
2022-10-05T13:02:32.355Z,4.72
2022-10-05T13:05:10.883Z,4.43
2022-10-05T13:07:45.020Z,5.05
2022-10-05T13:10:24.597Z,5.28
2022-10-05T13:13:16.114Z,5.18
2022-10-05T13:15:50.586Z,3.83
2022-10-05T13:18:34.113Z,4.22
2022-10-05T13:21:12.590Z,5.25
2022-10-05T13:24:19.890Z,5.43
2022-10-05T13:26:53.227Z,4.68
2022-10-05T13:29:33.026Z,5.65
2022-10-05T13:32:02.499Z,4.18
2022-10-05T13:34:41.041Z,4.60
2022-10-05T13:37:31.589Z,5.15
2022-10-05T13:40:22.692Z,4.63
2022-10-05T13:43:33.322Z,5.80
2022-10-05T13:46:07.360Z,4.63
2022-10-05T13:48:52.259Z,4.00
2022-10-05T13:51:24.258Z,4.47
2022-10-05T13:54:05.126Z,4.60
2022-10-05T13:56:42.473Z,6.68
2022-10-05T13:59:23.820Z,4.35
2022-10-05T14:02:05.654Z,4.13
2022-10-05T14:04:50.875Z,5.20
2022-10-05T14:07:38.240Z,4.15
2022-10-05T14:10:12.816Z,4.55
2022-10-05T14:12:41.690Z,3.70
2022-10-05T14:15:22.133Z,6.53
2022-10-05T14:17:51.281Z,4.43
2022-10-05T14:20:26.778Z,3.88
2022-10-05T14:22:57.269Z,3.90
2022-10-05T14:25:24.237Z,3.60
2022-10-05T14:28:12.053Z,4.55
2022-10-05T14:30:39.747Z,6.65
2022-10-05T14:33:06.076Z,4.13
2022-10-05T14:35:51.265Z,10.05
2022-10-05T14:38:29.330Z,3.42
2022-10-05T14:41:07.694Z,7.05
2022-10-05T14:43:35.367Z,4.07
2022-10-05T14:46:24.988Z,4.03
2022-10-05T14:49:21.629Z,4.93
2022-10-05T14:51:49.904Z,3.08
2022-10-05T14:54:28.521Z,3.85
2022-10-05T14:57:03.535Z,5.00
2022-10-05T14:59:54.829Z,4.53
2022-10-05T15:02:40.125Z,4.05
2022-10-05T15:05:31.671Z,3.40
2022-10-05T15:08:23.784Z,3.60
2022-10-05T15:11:23.896Z,3.35
2022-10-05T15:13:50.872Z,3.88
2022-10-05T15:16:29.347Z,3.53
2022-10-05T15:19:13.372Z,5.50
2022-10-05T15:21:50.222Z,8.75
2022-10-05T15:24:24.144Z,4.63
2022-10-05T15:26:54.414Z,6.00
2022-10-05T15:29:32.888Z,4.10
2022-10-05T15:32:18.168Z,4.55
2022-10-05T15:34:58.369Z,4.30
2022-10-05T15:37:32.924Z,4.03
2022-10-05T15:40:04.318Z,4.55
2022-10-05T15:42:41.372Z,6.25
2022-10-05T15:45:29.850Z,3.97
2022-10-05T15:48:00.898Z,3.50
2022-10-05T15:50:50.420Z,3.53
2022-10-05T15:53:27.039Z,6.43
2022-10-05T15:56:00.059Z,5.53
2022-10-05T16:01:15.932Z,10.40
2022-10-05T16:04:12.853Z,5.13
2022-10-05T16:07:11.869Z,4.47
2022-10-05T16:10:03.457Z,4.32
2022-10-05T16:12:56.485Z,3.38
2022-10-05T16:15:42.588Z,3.42
2022-10-05T16:18:19.188Z,3.72
2022-10-05T16:21:10.311Z,3.97
2022-10-05T16:23:58.055Z,4.13
2022-10-05T16:26:24.339Z,3.80
2022-10-05T16:28:56.693Z,3.88
2022-10-05T16:31:47.912Z,3.50
2022-10-05T16:34:31.399Z,3.47
2022-10-05T16:37:23.592Z,4.45
2022-10-05T16:39:57.064Z,4.72
2022-10-05T16:42:50.227Z,4.93
2022-10-05T16:45:47.739Z,4.13
2022-10-05T16:48:38.485Z,4.85
2022-10-05T16:51:04.789Z,3.88
2022-10-05T16:53:43.987Z,6.00
2022-10-05T16:56:19.056Z,7.22
2022-10-05T16:59:27.324Z,8.77
2022-10-05T17:02:23.369Z,6.85
2022-10-05T17:05:17.156Z,6.90
2022-10-05T17:08:16.966Z,5.88
2022-10-05T17:11:05.493Z,5.57
2022-10-05T17:13:56.481Z,6.65
2022-10-05T17:16:45.837Z,7.32
2022-10-05T17:19:32.893Z,7.30
2022-10-05T17:22:03.355Z,9.68
2022-10-05T17:24:48.392Z,8.98
2022-10-05T17:27:50.810Z,7.85
2022-10-05T17:30:31.480Z,7.63
2022-10-05T17:33:17.649Z,7.88
2022-10-05T17:35:55.039Z,5.60
2022-10-05T17:38:30.423Z,5.55
2022-10-05T17:40:59.926Z,5.18
2022-10-05T17:43:33.835Z,4.32
2022-10-05T17:46:02.820Z,3.40
2022-10-05T17:48:44.965Z,3.05
2022-10-05T17:51:56.463Z,4.95
2022-10-05T17:54:44.399Z,4.25
2022-10-05T17:57:10.701Z,2.80
2022-10-05T17:59:46.083Z,4.22
2022-10-05T18:02:40.626Z,2.95
2022-10-05T18:05:14.423Z,2.50
2022-10-05T18:07:48.052Z,3.17
2022-10-05T18:10:28.585Z,2.63
2022-10-05T18:13:03.942Z,3.10
2022-10-05T18:15:31.075Z,8.32
2022-10-05T18:18:54.494Z,6.82
2022-10-05T18:21:37.000Z,5.90
2022-10-05T18:24:23.030Z,3.47
2022-10-05T18:27:30.581Z,4.05
2022-10-05T18:30:22.197Z,2.97
2022-10-05T18:33:18.678Z,3.13
2022-10-05T18:36:01.768Z,3.97
2022-10-05T18:38:40.898Z,2.72
2022-10-05T18:41:22.569Z,3.10
2022-10-05T18:43:54.728Z,2.88
2022-10-05T18:46:42.613Z,2.60
2022-10-05T18:49:15.282Z,2.83
2022-10-05T18:52:00.265Z,10.55
2022-10-05T18:54:34.227Z,29.95
2022-10-05T18:57:25.210Z,22.58
2022-10-05T19:00:02.015Z,32.15
2022-10-05T19:02:38.362Z,17.45
2022-10-05T19:05:29.350Z,15.95
2022-10-05T19:10:52.260Z,12.35
2022-10-05T19:13:37.784Z,9.95
2022-10-05T19:16:14.558Z,9.65
2022-10-05T19:19:07.108Z,9.43
2022-10-05T19:21:42.425Z,8.27
2022-10-05T19:24:14.869Z,8.02
2022-10-05T19:26:56.492Z,6.90
2022-10-05T19:29:41.373Z,5.40
2022-10-05T19:32:18.502Z,4.20
2022-10-05T19:35:16.409Z,3.75
2022-10-05T19:37:52.449Z,2.85
2022-10-05T19:40:41.164Z,4.07
2022-10-05T19:43:14.228Z,3.28
2022-10-05T19:48:37.872Z,3.03
2022-10-05T19:51:12.383Z,3.13
2022-10-05T19:53:51.155Z,3.13
2022-10-05T19:56:25.099Z,3.13
2022-10-05T19:59:00.955Z,3.20
2022-10-05T20:01:39.953Z,2.80
2022-10-05T20:04:07.416Z,3.55
2022-10-05T20:06:34.383Z,2.42
2022-10-05T20:09:19.053Z,3.03
2022-10-05T20:11:52.681Z,4.65
2022-10-05T20:14:33.275Z,8.35
2022-10-05T20:17:46.997Z,9.90
2022-10-05T20:20:34.590Z,7.47
2022-10-05T20:23:21.469Z,4.95
2022-10-05T20:26:07.293Z,4.07
2022-10-05T20:28:33.886Z,5.88
2022-10-05T20:31:07.519Z,5.03
2022-10-05T20:33:43.343Z,3.60
2022-10-05T20:38:40.592Z,3.55
2022-10-05T20:41:07.785Z,3.70
2022-10-05T20:43:39.046Z,4.22
2022-10-05T20:46:06.205Z,3.78
2022-10-05T20:48:32.621Z,3.72
2022-10-05T20:51:00.194Z,3.33
2022-10-05T20:53:29.803Z,4.07
2022-10-05T20:56:04.538Z,3.47
2022-10-05T20:58:31.339Z,2.70
2022-10-05T21:01:16.748Z,4.47
2022-10-05T21:03:49.240Z,4.68
2022-10-05T21:06:28.507Z,4.30
2022-10-05T21:08:57.557Z,3.80
2022-10-05T21:11:24.006Z,3.88
2022-10-05T21:13:51.264Z,3.10
2022-10-05T21:16:18.763Z,3.63
2022-10-05T21:18:48.534Z,3.13
2022-10-05T21:21:17.235Z,3.83
2022-10-05T21:23:51.044Z,4.13
2022-10-05T21:26:20.785Z,4.03
2022-10-05T21:28:48.297Z,4.70
2022-10-05T21:31:14.795Z,3.95
2022-10-05T21:33:41.179Z,13.77
2022-10-05T21:36:07.553Z,11.73
2022-10-05T21:38:35.452Z,5.88
2022-10-05T21:41:02.140Z,4.50
2022-10-05T21:43:28.708Z,4.35
2022-10-05T21:45:55.504Z,4.10
2022-10-05T21:48:22.574Z,4.25
2022-10-05T21:50:50.748Z,3.88
2022-10-05T21:53:25.642Z,3.67
2022-10-05T21:55:52.888Z,4.90
2022-10-05T21:58:22.079Z,3.72
2022-10-05T22:00:51.596Z,4.20
2022-10-05T22:03:18.071Z,3.90
2022-10-05T22:05:44.566Z,3.72
2022-10-05T22:08:29.360Z,4.20
2022-10-05T22:10:56.991Z,3.83
2022-10-05T22:13:26.074Z,4.57
2022-10-05T22:15:55.329Z,4.38
2022-10-05T22:18:27.362Z,4.43
2022-10-05T22:20:54.655Z,5.53
2022-10-05T22:23:26.437Z,4.70
2022-10-05T22:25:53.206Z,5.72
2022-10-05T22:28:19.624Z,4.45
2022-10-05T22:30:46.309Z,5.78
2022-10-05T22:33:13.178Z,5.32
2022-10-05T22:35:39.869Z,6.10
2022-10-05T22:38:06.549Z,5.40
2022-10-05T22:40:32.925Z,6.75
2022-10-05T22:42:59.269Z,4.55
2022-10-05T22:45:30.351Z,4.50
2022-10-05T22:47:58.804Z,5.15
2022-10-05T22:50:25.142Z,4.53
2022-10-05T22:52:52.356Z,4.07
2022-10-05T22:55:18.925Z,6.07
2022-10-05T22:57:45.394Z,5.05
2022-10-05T23:00:12.467Z,4.50
2022-10-05T23:02:40.836Z,5.60
2022-10-05T23:05:08.711Z,4.55
2022-10-05T23:07:46.584Z,3.78
2022-10-05T23:10:16.065Z,4.63
2022-10-05T23:12:43.177Z,4.35
2022-10-05T23:15:10.548Z,4.38
2022-10-05T23:17:38.856Z,4.43
2022-10-05T23:20:08.867Z,7.13
2022-10-05T23:22:36.895Z,7.25
2022-10-05T23:25:05.251Z,4.90
2022-10-05T23:27:42.163Z,4.28
2022-10-05T23:30:10.729Z,5.70
2022-10-05T23:32:42.036Z,4.93
2022-10-05T23:35:11.026Z,5.20
2022-10-05T23:37:42.634Z,5.65
2022-10-05T23:40:12.084Z,4.53
2022-10-05T23:42:39.945Z,4.45
2022-10-05T23:45:07.977Z,4.82
2022-10-05T23:47:34.744Z,4.40
2022-10-05T23:50:01.208Z,6.30
2022-10-05T23:52:27.752Z,5.60
2022-10-05T23:54:54.243Z,4.80
2022-10-05T23:57:20.653Z,4.38
2022-10-05T23:59:50.033Z,3.95
